EWG28E EDLW-LEPA
Flight info
| Callsign | EWG28E |
|---|---|
| Flight time | 2h 5m |
| Altitude | 24000 |
| Route | BAMSU2Q/06 BAMSU M170 NVO/N0450F360 Y841 KENUM DCT GESLO/N0453F370 DCT LIMGO DCT SUTAL DCT GTQ DCT POGOL DCT LASAT DCT MOROK DCT GILIR DCT GEVEA DCT INCUS DCT BALSI DCT RETNO DCT TUPOX DCT MTG DCT DIVKO DCT VATIR N852 VERSO DCT LUNIK |
| Aircraft | A320/M-SDE3FGHIRWY/LB1 |
Departure
| Time | 2026-05-05 19:13 |
|---|---|
| Airport | Dortmund Airport (EDLW) |
Arrival
| Time | 2026-05-05 21:19 |
|---|---|
| Airport | Palma de Mallorca Airport (LEPA) |
| Time | Latitude | Longitude | Altitude | Speed | Heading |
|---|---|---|---|---|---|
| 2026-05-05 18:49 | 51.51585 | 7.61284 | 434 ft | 0 kts | 332° |
| 2026-05-05 19:09 | 51.51594 | 7.61276 | 430 ft | 6 kts | 332° |
| 2026-05-05 19:10 | 51.51627 | 7.61186 | 428 ft | 16 kts | 250° |
| 2026-05-05 19:10 | 51.51585 | 7.61047 | 432 ft | 12 kts | 243° |
| 2026-05-05 19:10 | 51.51549 | 7.60935 | 428 ft | 11 kts | 242° |
| 2026-05-05 19:10 | 51.51507 | 7.60812 | 422 ft | 11 kts | 241° |
| 2026-05-05 19:11 | 51.51480 | 7.60733 | 417 ft | 6 kts | 240° |
| 2026-05-05 19:11 | 51.51452 | 7.60655 | 420 ft | 7 kts | 240° |
| 2026-05-05 19:11 | 51.51401 | 7.60517 | 414 ft | 21 kts | 242° |
| 2026-05-05 19:11 | 51.51362 | 7.60356 | 418 ft | 13 kts | 280° |
| 2026-05-05 19:12 | 51.51425 | 7.60256 | 416 ft | 13 kts | 328° |
| 2026-05-05 19:12 | 51.51488 | 7.60244 | 413 ft | 9 kts | 46° |
| 2026-05-05 19:12 | 51.51498 | 7.60271 | 411 ft | 0 kts | 60° |
| 2026-05-05 19:12 | 51.51535 | 7.60377 | 411 ft | 44 kts | 60° |
| 2026-05-05 19:13 | 51.51813 | 7.61165 | 417 ft | 117 kts | 60° |
| 2026-05-05 19:13 | 51.52320 | 7.62590 | 533 ft | 163 kts | 59° |
| 2026-05-05 19:13 | 51.52860 | 7.64205 | 1206 ft | 170 kts | 60° |
| 2026-05-05 19:13 | 51.53426 | 7.65863 | 2041 ft | 171 kts | 59° |
| 2026-05-05 19:14 | 51.54050 | 7.67606 | 2438 ft | 190 kts | 60° |
| 2026-05-05 19:14 | 51.54743 | 7.69551 | 2785 ft | 212 kts | 60° |
| 2026-05-05 19:14 | 51.55521 | 7.71724 | 3147 ft | 237 kts | 61° |
| 2026-05-05 19:14 | 51.56044 | 7.74293 | 3742 ft | 250 kts | 90° |
| 2026-05-05 19:15 | 51.55509 | 7.76958 | 4563 ft | 259 kts | 126° |
| 2026-05-05 19:15 | 51.54051 | 7.78689 | 5404 ft | 267 kts | 160° |
| 2026-05-05 19:15 | 51.52200 | 7.78856 | 6275 ft | 274 kts | 194° |
| 2026-05-05 19:15 | 51.50543 | 7.77340 | 7109 ft | 280 kts | 223° |
| 2026-05-05 19:16 | 51.49319 | 7.74875 | 7641 ft | 286 kts | 240° |
| 2026-05-05 19:16 | 51.48493 | 7.71974 | 7800 ft | 287 kts | 246° |
| 2026-05-05 19:16 | 51.47681 | 7.69058 | 7836 ft | 285 kts | 245° |
| 2026-05-05 19:16 | 51.46852 | 7.66188 | 7837 ft | 283 kts | 245° |
| 2026-05-05 19:17 | 51.46018 | 7.63339 | 7838 ft | 282 kts | 244° |
| 2026-05-05 19:17 | 51.45139 | 7.60479 | 8402 ft | 287 kts | 237° |
| 2026-05-05 19:17 | 51.43863 | 7.58074 | 9328 ft | 288 kts | 225° |
| 2026-05-05 19:17 | 51.42428 | 7.55800 | 10123 ft | 295 kts | 224° |
| 2026-05-05 19:18 | 51.40903 | 7.53426 | 10396 ft | 318 kts | 224° |
| 2026-05-05 19:18 | 51.39252 | 7.50873 | 10609 ft | 342 kts | 224° |
| 2026-05-05 19:18 | 51.37501 | 7.48166 | 11058 ft | 354 kts | 224° |
| 2026-05-05 19:18 | 51.35715 | 7.45403 | 11766 ft | 358 kts | 223° |
| 2026-05-05 19:19 | 51.33914 | 7.42613 | 12488 ft | 362 kts | 223° |
| 2026-05-05 19:19 | 51.32099 | 7.39795 | 13175 ft | 366 kts | 223° |
| 2026-05-05 19:19 | 51.30262 | 7.36938 | 13850 ft | 370 kts | 223° |
| 2026-05-05 19:19 | 51.28407 | 7.34057 | 14500 ft | 372 kts | 223° |
| 2026-05-05 19:20 | 51.26538 | 7.31166 | 15141 ft | 376 kts | 223° |
| 2026-05-05 19:20 | 51.24676 | 7.28291 | 15747 ft | 379 kts | 223° |
| 2026-05-05 19:20 | 51.22775 | 7.25355 | 16383 ft | 382 kts | 223° |
| 2026-05-05 19:20 | 51.20855 | 7.22398 | 17015 ft | 384 kts | 223° |
| 2026-05-05 19:21 | 51.18925 | 7.19432 | 17629 ft | 388 kts | 223° |
| 2026-05-05 19:21 | 51.16972 | 7.16432 | 18225 ft | 391 kts | 223° |
| 2026-05-05 19:21 | 51.15009 | 7.13408 | 18766 ft | 394 kts | 223° |
| 2026-05-05 19:21 | 51.13030 | 7.10368 | 19333 ft | 396 kts | 222° |
| 2026-05-05 19:22 | 51.11040 | 7.07312 | 19802 ft | 400 kts | 222° |
| 2026-05-05 19:22 | 51.09022 | 7.04221 | 20269 ft | 404 kts | 222° |
| 2026-05-05 19:22 | 51.06986 | 7.01110 | 20762 ft | 408 kts | 222° |
| 2026-05-05 19:22 | 51.04928 | 6.97979 | 21240 ft | 411 kts | 222° |
| 2026-05-05 19:23 | 51.02858 | 6.94832 | 21720 ft | 414 kts | 222° |
| 2026-05-05 19:23 | 51.00774 | 6.91664 | 22185 ft | 416 kts | 222° |
| 2026-05-05 19:23 | 50.98690 | 6.88493 | 22638 ft | 419 kts | 222° |
| 2026-05-05 19:23 | 50.96564 | 6.85256 | 23086 ft | 422 kts | 222° |
| 2026-05-05 19:24 | 50.94437 | 6.82022 | 23497 ft | 425 kts | 222° |
| 2026-05-05 19:24 | 50.92298 | 6.78779 | 23852 ft | 427 kts | 222° |
| 2026-05-05 19:24 | 50.90140 | 6.75514 | 24213 ft | 429 kts | 221° |
| 2026-05-05 19:24 | 50.87998 | 6.72282 | 24565 ft | 431 kts | 221° |
| 2026-05-05 19:25 | 50.85821 | 6.69008 | 24925 ft | 433 kts | 221° |
| 2026-05-05 19:25 | 50.83708 | 6.65581 | 25266 ft | 437 kts | 228° |
| 2026-05-05 19:25 | 50.81957 | 6.61625 | 25599 ft | 442 kts | 238° |
| 2026-05-05 19:25 | 50.80649 | 6.57209 | 25940 ft | 446 kts | 246° |
| 2026-05-05 19:26 | 50.79517 | 6.52634 | 26270 ft | 448 kts | 246° |
| 2026-05-05 19:26 | 50.78365 | 6.48039 | 26595 ft | 450 kts | 246° |
| 2026-05-05 19:26 | 50.77201 | 6.43443 | 26898 ft | 452 kts | 246° |
| 2026-05-05 19:26 | 50.76029 | 6.38828 | 27195 ft | 454 kts | 246° |
| 2026-05-05 19:27 | 50.74743 | 6.34278 | 27480 ft | 453 kts | 239° |
| 2026-05-05 19:27 | 50.72998 | 6.30151 | 27756 ft | 452 kts | 228° |
| 2026-05-05 19:27 | 50.70840 | 6.26645 | 28019 ft | 450 kts | 218° |
| 2026-05-05 19:27 | 50.68262 | 6.23742 | 28254 ft | 450 kts | 207° |
| 2026-05-05 19:28 | 50.65480 | 6.21667 | 28471 ft | 449 kts | 198° |
| 2026-05-05 19:28 | 50.62479 | 6.20339 | 28698 ft | 449 kts | 191° |
| 2026-05-05 19:28 | 50.59397 | 6.19210 | 29014 ft | 448 kts | 191° |
| 2026-05-05 19:28 | 50.56366 | 6.18099 | 29366 ft | 447 kts | 191° |
| 2026-05-05 19:29 | 50.53345 | 6.16994 | 29728 ft | 446 kts | 191° |
| 2026-05-05 19:29 | 50.50364 | 6.15901 | 30058 ft | 445 kts | 191° |
| 2026-05-05 19:29 | 50.47354 | 6.14797 | 30384 ft | 443 kts | 191° |
| 2026-05-05 19:29 | 50.44350 | 6.13698 | 30690 ft | 442 kts | 190° |
| 2026-05-05 19:30 | 50.41358 | 6.12603 | 30809 ft | 442 kts | 190° |
| 2026-05-05 19:30 | 50.38361 | 6.11512 | 30880 ft | 443 kts | 191° |
| 2026-05-05 19:30 | 50.32380 | 6.09336 | 30821 ft | 440 kts | 190° |
| 2026-05-05 19:31 | 50.26410 | 6.07172 | 30832 ft | 440 kts | 190° |
| 2026-05-05 19:31 | 50.20420 | 6.05006 | 30827 ft | 442 kts | 190° |
| 2026-05-05 19:32 | 50.14423 | 6.02843 | 30824 ft | 443 kts | 190° |
| 2026-05-05 19:32 | 50.11407 | 6.01870 | 30935 ft | 442 kts | 184° |
| 2026-05-05 19:32 | 50.08354 | 6.01681 | 31243 ft | 437 kts | 174° |
| 2026-05-05 19:33 | 50.05366 | 6.02376 | 31564 ft | 433 kts | 163° |
| 2026-05-05 19:33 | 50.02531 | 6.03890 | 31881 ft | 430 kts | 156° |
| 2026-05-05 19:33 | 49.99754 | 6.05649 | 32146 ft | 430 kts | 156° |
| 2026-05-05 19:33 | 49.96982 | 6.07401 | 32450 ft | 430 kts | 156° |
| 2026-05-05 19:34 | 49.94222 | 6.09143 | 32760 ft | 428 kts | 156° |
| 2026-05-05 19:34 | 49.91460 | 6.10879 | 33079 ft | 427 kts | 156° |
| 2026-05-05 19:34 | 49.88705 | 6.12605 | 33407 ft | 426 kts | 156° |
| 2026-05-05 19:35 | 49.83264 | 6.16004 | 34019 ft | 423 kts | 157° |
| 2026-05-05 19:35 | 49.80532 | 6.17708 | 34263 ft | 423 kts | 157° |
| 2026-05-05 19:35 | 49.77794 | 6.19415 | 34460 ft | 425 kts | 157° |
| 2026-05-05 19:35 | 49.75055 | 6.21121 | 34648 ft | 426 kts | 158° |
| 2026-05-05 19:36 | 49.72303 | 6.22834 | 34849 ft | 427 kts | 158° |
| 2026-05-05 19:36 | 49.69543 | 6.24549 | 35047 ft | 427 kts | 158° |
| 2026-05-05 19:36 | 49.66779 | 6.26265 | 35244 ft | 428 kts | 158° |
| 2026-05-05 19:36 | 49.64016 | 6.27984 | 35437 ft | 428 kts | 158° |
| 2026-05-05 19:37 | 49.61256 | 6.29717 | 35642 ft | 429 kts | 158° |
| 2026-05-05 19:37 | 49.58498 | 6.31487 | 35774 ft | 430 kts | 158° |
| 2026-05-05 19:37 | 49.55731 | 6.33283 | 35814 ft | 433 kts | 158° |
| 2026-05-05 19:38 | 49.50164 | 6.36904 | 35812 ft | 435 kts | 158° |
| 2026-05-05 19:38 | 49.44579 | 6.40532 | 35813 ft | 436 kts | 157° |
| 2026-05-05 19:39 | 49.39036 | 6.44297 | 35819 ft | 436 kts | 156° |
| 2026-05-05 19:39 | 49.33505 | 6.48124 | 35827 ft | 436 kts | 156° |
| 2026-05-05 19:40 | 49.27990 | 6.51888 | 35826 ft | 436 kts | 157° |
| 2026-05-05 19:40 | 49.22435 | 6.55635 | 35830 ft | 437 kts | 157° |
| 2026-05-05 19:41 | 49.16862 | 6.59383 | 35834 ft | 437 kts | 157° |
| 2026-05-05 19:41 | 49.14078 | 6.61251 | 35948 ft | 437 kts | 158° |
| 2026-05-05 19:41 | 49.11169 | 6.62537 | 36132 ft | 435 kts | 173° |
| 2026-05-05 19:41 | 49.08157 | 6.62598 | 36289 ft | 433 kts | 187° |
| 2026-05-05 19:42 | 49.05169 | 6.62035 | 36494 ft | 432 kts | 188° |
| 2026-05-05 19:42 | 49.02186 | 6.61444 | 36682 ft | 432 kts | 188° |
| 2026-05-05 19:42 | 48.99210 | 6.60839 | 36824 ft | 432 kts | 188° |
| 2026-05-05 19:43 | 48.93248 | 6.59633 | 36838 ft | 432 kts | 188° |
| 2026-05-05 19:43 | 48.87281 | 6.58454 | 36838 ft | 433 kts | 188° |
| 2026-05-05 19:44 | 48.81302 | 6.57276 | 36842 ft | 433 kts | 188° |
| 2026-05-05 19:44 | 48.76332 | 6.56290 | 36840 ft | 433 kts | 188° |
| 2026-05-05 19:45 | 48.70349 | 6.55105 | 36839 ft | 434 kts | 188° |
| 2026-05-05 19:45 | 48.64364 | 6.53932 | 36843 ft | 434 kts | 188° |
| 2026-05-05 19:46 | 48.58369 | 6.52768 | 36849 ft | 434 kts | 188° |
| 2026-05-05 19:46 | 48.52384 | 6.51591 | 36853 ft | 434 kts | 188° |
| 2026-05-05 19:47 | 48.46383 | 6.50424 | 36861 ft | 434 kts | 188° |
| 2026-05-05 19:47 | 48.40392 | 6.49266 | 36864 ft | 434 kts | 188° |
| 2026-05-05 19:48 | 48.34435 | 6.48113 | 36870 ft | 434 kts | 188° |
| 2026-05-05 19:48 | 48.28439 | 6.46955 | 36873 ft | 434 kts | 188° |
| 2026-05-05 19:49 | 48.22447 | 6.45800 | 36873 ft | 434 kts | 188° |
| 2026-05-05 19:49 | 48.16462 | 6.44652 | 36876 ft | 434 kts | 188° |
| 2026-05-05 19:50 | 48.10478 | 6.43501 | 36882 ft | 433 kts | 188° |
| 2026-05-05 19:50 | 48.04495 | 6.42346 | 36884 ft | 433 kts | 188° |
| 2026-05-05 19:51 | 47.98549 | 6.41205 | 36885 ft | 433 kts | 188° |
| 2026-05-05 19:51 | 47.92575 | 6.40067 | 36894 ft | 433 kts | 188° |
| 2026-05-05 19:52 | 47.86600 | 6.38932 | 36894 ft | 432 kts | 188° |
| 2026-05-05 19:52 | 47.80629 | 6.37807 | 36881 ft | 432 kts | 188° |
| 2026-05-05 19:53 | 47.74668 | 6.36682 | 36884 ft | 431 kts | 188° |
| 2026-05-05 19:53 | 47.68721 | 6.35554 | 36885 ft | 431 kts | 189° |
| 2026-05-05 19:54 | 47.62771 | 6.34426 | 36887 ft | 431 kts | 189° |
| 2026-05-05 19:54 | 47.56829 | 6.33308 | 36887 ft | 431 kts | 189° |
| 2026-05-05 19:55 | 47.50882 | 6.32189 | 36892 ft | 431 kts | 188° |
| 2026-05-05 19:55 | 47.44940 | 6.31078 | 36895 ft | 431 kts | 188° |
| 2026-05-05 19:56 | 47.38989 | 6.29980 | 36891 ft | 431 kts | 189° |
| 2026-05-05 19:56 | 47.33076 | 6.28877 | 36893 ft | 431 kts | 189° |
| 2026-05-05 19:57 | 47.27115 | 6.27765 | 36896 ft | 431 kts | 189° |
| 2026-05-05 19:57 | 47.21158 | 6.26674 | 36897 ft | 431 kts | 189° |
| 2026-05-05 19:58 | 47.15202 | 6.25567 | 36904 ft | 431 kts | 189° |
| 2026-05-05 19:58 | 47.09253 | 6.24462 | 36910 ft | 431 kts | 189° |
| 2026-05-05 19:59 | 47.03290 | 6.23419 | 36910 ft | 431 kts | 188° |
| 2026-05-05 19:59 | 46.97323 | 6.22622 | 36903 ft | 431 kts | 187° |
| 2026-05-05 20:00 | 46.91334 | 6.21895 | 36911 ft | 431 kts | 187° |
| 2026-05-05 20:00 | 46.85382 | 6.21134 | 36922 ft | 431 kts | 187° |
| 2026-05-05 20:01 | 46.79418 | 6.20331 | 36917 ft | 431 kts | 187° |
| 2026-05-05 20:01 | 46.73439 | 6.19530 | 36922 ft | 431 kts | 187° |
| 2026-05-05 20:02 | 46.67471 | 6.18740 | 36924 ft | 431 kts | 187° |
| 2026-05-05 20:02 | 46.61495 | 6.17957 | 36924 ft | 430 kts | 187° |
| 2026-05-05 20:03 | 46.55525 | 6.17173 | 36922 ft | 430 kts | 187° |
| 2026-05-05 20:03 | 46.49564 | 6.16388 | 36921 ft | 430 kts | 187° |
| 2026-05-05 20:04 | 46.43612 | 6.15599 | 36919 ft | 429 kts | 187° |
| 2026-05-05 20:04 | 46.37678 | 6.14820 | 36932 ft | 429 kts | 187° |
| 2026-05-05 20:05 | 46.31764 | 6.14050 | 36936 ft | 428 kts | 187° |
| 2026-05-05 20:05 | 46.25835 | 6.13282 | 36938 ft | 428 kts | 188° |
| 2026-05-05 20:06 | 46.19934 | 6.12213 | 36934 ft | 426 kts | 191° |
| 2026-05-05 20:06 | 46.14102 | 6.10806 | 36938 ft | 425 kts | 192° |
| 2026-05-05 20:07 | 46.08266 | 6.09397 | 36958 ft | 425 kts | 191° |
| 2026-05-05 20:07 | 46.02421 | 6.08086 | 36967 ft | 425 kts | 191° |
| 2026-05-05 20:08 | 45.96583 | 6.06827 | 36969 ft | 423 kts | 191° |
| 2026-05-05 20:08 | 45.90775 | 6.05556 | 36972 ft | 422 kts | 191° |
| 2026-05-05 20:09 | 45.85037 | 6.04290 | 36970 ft | 420 kts | 191° |
| 2026-05-05 20:09 | 45.79255 | 6.03018 | 36959 ft | 420 kts | 191° |
| 2026-05-05 20:10 | 45.73489 | 6.01740 | 36959 ft | 419 kts | 192° |
| 2026-05-05 20:10 | 45.67729 | 6.00452 | 36963 ft | 418 kts | 192° |
| 2026-05-05 20:11 | 45.61964 | 5.99183 | 36969 ft | 419 kts | 191° |
| 2026-05-05 20:11 | 45.56193 | 5.97929 | 36952 ft | 420 kts | 191° |
| 2026-05-05 20:12 | 45.50410 | 5.96670 | 36950 ft | 420 kts | 191° |
| 2026-05-05 20:12 | 45.44649 | 5.95279 | 36948 ft | 420 kts | 194° |
| 2026-05-05 20:13 | 45.38986 | 5.93488 | 36936 ft | 420 kts | 196° |
| 2026-05-05 20:13 | 45.33288 | 5.91587 | 36941 ft | 421 kts | 196° |
| 2026-05-05 20:14 | 45.27571 | 5.89750 | 36942 ft | 421 kts | 195° |
| 2026-05-05 20:14 | 45.21843 | 5.87980 | 36939 ft | 421 kts | 195° |
| 2026-05-05 20:15 | 45.16112 | 5.86223 | 36946 ft | 421 kts | 195° |
| 2026-05-05 20:15 | 45.10385 | 5.84458 | 36950 ft | 421 kts | 195° |
| 2026-05-05 20:16 | 45.04666 | 5.82692 | 36954 ft | 421 kts | 195° |
| 2026-05-05 20:16 | 44.98946 | 5.80923 | 36952 ft | 420 kts | 195° |
| 2026-05-05 20:17 | 44.93233 | 5.79169 | 36954 ft | 419 kts | 195° |
| 2026-05-05 20:17 | 44.87535 | 5.77421 | 36958 ft | 419 kts | 195° |
| 2026-05-05 20:18 | 44.81846 | 5.75682 | 36966 ft | 417 kts | 196° |
| 2026-05-05 20:18 | 44.76185 | 5.73956 | 36972 ft | 415 kts | 196° |
| 2026-05-05 20:19 | 44.70544 | 5.72224 | 36969 ft | 414 kts | 196° |
| 2026-05-05 20:19 | 44.64951 | 5.70516 | 36983 ft | 414 kts | 196° |
| 2026-05-05 20:20 | 44.59285 | 5.68785 | 36965 ft | 415 kts | 196° |
| 2026-05-05 20:20 | 44.53670 | 5.67087 | 36957 ft | 416 kts | 196° |
| 2026-05-05 20:21 | 44.48007 | 5.65380 | 36954 ft | 416 kts | 195° |
| 2026-05-05 20:21 | 44.42349 | 5.63669 | 36958 ft | 416 kts | 196° |
| 2026-05-05 20:22 | 44.36754 | 5.61670 | 36964 ft | 412 kts | 204° |
| 2026-05-05 20:22 | 44.31420 | 5.58739 | 36968 ft | 412 kts | 204° |
| 2026-05-05 20:23 | 44.26083 | 5.55814 | 36957 ft | 411 kts | 204° |
| 2026-05-05 20:23 | 44.20756 | 5.52900 | 36980 ft | 411 kts | 204° |
| 2026-05-05 20:24 | 44.15434 | 5.50004 | 36968 ft | 411 kts | 204° |
| 2026-05-05 20:24 | 44.10115 | 5.47106 | 36969 ft | 410 kts | 204° |
| 2026-05-05 20:25 | 44.04807 | 5.44221 | 36962 ft | 409 kts | 204° |
| 2026-05-05 20:25 | 43.99499 | 5.41353 | 36961 ft | 409 kts | 204° |
| 2026-05-05 20:26 | 43.94208 | 5.38488 | 36968 ft | 408 kts | 204° |
| 2026-05-05 20:26 | 43.88913 | 5.35621 | 36940 ft | 408 kts | 204° |
| 2026-05-05 20:27 | 43.83660 | 5.32783 | 36980 ft | 408 kts | 204° |
| 2026-05-05 20:27 | 43.78367 | 5.29926 | 36970 ft | 409 kts | 204° |
| 2026-05-05 20:28 | 43.73059 | 5.27076 | 36969 ft | 409 kts | 204° |
| 2026-05-05 20:28 | 43.67740 | 5.24226 | 36949 ft | 409 kts | 205° |
| 2026-05-05 20:29 | 43.62435 | 5.21380 | 36963 ft | 409 kts | 205° |
| 2026-05-05 20:29 | 43.57131 | 5.18544 | 36939 ft | 408 kts | 205° |
| 2026-05-05 20:30 | 43.51833 | 5.15717 | 36939 ft | 408 kts | 205° |
| 2026-05-05 20:30 | 43.46542 | 5.12894 | 36937 ft | 407 kts | 205° |
| 2026-05-05 20:31 | 43.41257 | 5.10087 | 36944 ft | 407 kts | 205° |
| 2026-05-05 20:31 | 43.36310 | 5.06502 | 36942 ft | 401 kts | 217° |
| 2026-05-05 20:32 | 43.31745 | 5.02183 | 36915 ft | 401 kts | 217° |
| 2026-05-05 20:32 | 43.27158 | 4.97871 | 36936 ft | 399 kts | 217° |
| 2026-05-05 20:33 | 43.22588 | 4.93579 | 36963 ft | 399 kts | 216° |
| 2026-05-05 20:33 | 43.18961 | 4.90181 | 36950 ft | 399 kts | 217° |
| 2026-05-05 20:34 | 43.14382 | 4.85884 | 36943 ft | 399 kts | 217° |
| 2026-05-05 20:34 | 43.09905 | 4.81696 | 36924 ft | 399 kts | 216° |
| 2026-05-05 20:35 | 43.05310 | 4.77463 | 36932 ft | 399 kts | 212° |
| 2026-05-05 20:35 | 43.00458 | 4.73771 | 36941 ft | 398 kts | 212° |
| 2026-05-05 20:36 | 42.95618 | 4.70105 | 36937 ft | 398 kts | 212° |
| 2026-05-05 20:36 | 42.90770 | 4.66435 | 36918 ft | 397 kts | 212° |
| 2026-05-05 20:37 | 42.85951 | 4.62792 | 36938 ft | 396 kts | 212° |
| 2026-05-05 20:37 | 42.81127 | 4.59154 | 36935 ft | 396 kts | 212° |
| 2026-05-05 20:38 | 42.76304 | 4.55521 | 36944 ft | 397 kts | 212° |
| 2026-05-05 20:38 | 42.71453 | 4.51881 | 36925 ft | 399 kts | 212° |
| 2026-05-05 20:39 | 42.66624 | 4.48263 | 36916 ft | 399 kts | 212° |
| 2026-05-05 20:39 | 42.61751 | 4.44615 | 36913 ft | 400 kts | 212° |
| 2026-05-05 20:40 | 42.56878 | 4.40963 | 36911 ft | 400 kts | 212° |
| 2026-05-05 20:40 | 42.51999 | 4.37319 | 36882 ft | 400 kts | 212° |
| 2026-05-05 20:41 | 42.47136 | 4.33700 | 36910 ft | 399 kts | 212° |
| 2026-05-05 20:41 | 42.42273 | 4.30085 | 36916 ft | 399 kts | 212° |
| 2026-05-05 20:42 | 42.37409 | 4.26474 | 36932 ft | 399 kts | 212° |
| 2026-05-05 20:42 | 42.32541 | 4.22870 | 36889 ft | 399 kts | 212° |
| 2026-05-05 20:43 | 42.27675 | 4.19276 | 36948 ft | 398 kts | 212° |
| 2026-05-05 20:43 | 42.22846 | 4.15710 | 36939 ft | 399 kts | 212° |
| 2026-05-05 20:44 | 42.17979 | 4.12123 | 36933 ft | 399 kts | 212° |
| 2026-05-05 20:44 | 42.13107 | 4.08535 | 36928 ft | 399 kts | 212° |
| 2026-05-05 20:45 | 42.05790 | 4.03160 | 36906 ft | 399 kts | 212° |
| 2026-05-05 20:45 | 42.00910 | 3.99579 | 36910 ft | 399 kts | 212° |
| 2026-05-05 20:46 | 41.96025 | 3.96005 | 36909 ft | 400 kts | 212° |
| 2026-05-05 20:46 | 41.90890 | 3.93059 | 36866 ft | 408 kts | 198° |
| 2026-05-05 20:47 | 41.85298 | 3.91726 | 36879 ft | 412 kts | 195° |
| 2026-05-05 20:47 | 41.79644 | 3.90429 | 36889 ft | 413 kts | 195° |
| 2026-05-05 20:48 | 41.73977 | 3.89126 | 36897 ft | 413 kts | 195° |
| 2026-05-05 20:48 | 41.68356 | 3.87826 | 36887 ft | 413 kts | 195° |
| 2026-05-05 20:49 | 41.62687 | 3.86515 | 36902 ft | 413 kts | 195° |
| 2026-05-05 20:49 | 41.57012 | 3.85216 | 36912 ft | 413 kts | 195° |
| 2026-05-05 20:50 | 41.51374 | 3.83923 | 36920 ft | 413 kts | 195° |
| 2026-05-05 20:50 | 41.45710 | 3.82628 | 36908 ft | 412 kts | 195° |
| 2026-05-05 20:51 | 41.40054 | 3.81337 | 36932 ft | 412 kts | 195° |
| 2026-05-05 20:51 | 41.34407 | 3.80049 | 36958 ft | 412 kts | 195° |
| 2026-05-05 20:52 | 41.28731 | 3.78746 | 36925 ft | 414 kts | 196° |
| 2026-05-05 20:52 | 41.23046 | 3.77454 | 36908 ft | 414 kts | 195° |
| 2026-05-05 20:53 | 41.17363 | 3.76169 | 36918 ft | 415 kts | 195° |
| 2026-05-05 20:53 | 41.11924 | 3.73966 | 36923 ft | 406 kts | 206° |
| 2026-05-05 20:54 | 41.06651 | 3.71236 | 36891 ft | 407 kts | 206° |
| 2026-05-05 20:54 | 41.01423 | 3.68542 | 36927 ft | 405 kts | 206° |
| 2026-05-05 20:55 | 40.96170 | 3.65840 | 36946 ft | 405 kts | 206° |
| 2026-05-05 20:55 | 40.90923 | 3.63154 | 36954 ft | 404 kts | 206° |
| 2026-05-05 20:56 | 40.85684 | 3.60472 | 36942 ft | 403 kts | 206° |
| 2026-05-05 20:56 | 40.80451 | 3.57793 | 36941 ft | 402 kts | 206° |
| 2026-05-05 20:57 | 40.75231 | 3.55122 | 36636 ft | 401 kts | 206° |
| 2026-05-05 20:57 | 40.72631 | 3.53800 | 35891 ft | 400 kts | 206° |
| 2026-05-05 20:57 | 40.70042 | 3.52485 | 35137 ft | 398 kts | 207° |
| 2026-05-05 20:58 | 40.67495 | 3.51190 | 34379 ft | 397 kts | 207° |
| 2026-05-05 20:58 | 40.64895 | 3.49867 | 33614 ft | 394 kts | 207° |
| 2026-05-05 20:58 | 40.62346 | 3.48572 | 32723 ft | 393 kts | 207° |
| 2026-05-05 20:58 | 40.59792 | 3.47275 | 31821 ft | 393 kts | 207° |
| 2026-05-05 20:59 | 40.57272 | 3.45993 | 30963 ft | 393 kts | 207° |
| 2026-05-05 20:59 | 40.54720 | 3.44696 | 30053 ft | 394 kts | 207° |
| 2026-05-05 20:59 | 40.52151 | 3.43390 | 28906 ft | 397 kts | 207° |
| 2026-05-05 20:59 | 40.49569 | 3.42079 | 27881 ft | 397 kts | 207° |
| 2026-05-05 21:00 | 40.46994 | 3.40777 | 26863 ft | 398 kts | 206° |
| 2026-05-05 21:00 | 40.44303 | 3.39797 | 25958 ft | 404 kts | 197° |
| 2026-05-05 21:00 | 40.41487 | 3.39428 | 25143 ft | 409 kts | 188° |
| 2026-05-05 21:00 | 40.38636 | 3.39552 | 24362 ft | 410 kts | 185° |
| 2026-05-05 21:01 | 40.35786 | 3.39718 | 23560 ft | 409 kts | 185° |
| 2026-05-05 21:01 | 40.32951 | 3.39882 | 22698 ft | 407 kts | 185° |
| 2026-05-05 21:01 | 40.30135 | 3.40043 | 21957 ft | 402 kts | 185° |
| 2026-05-05 21:01 | 40.27354 | 3.40202 | 21231 ft | 399 kts | 185° |
| 2026-05-05 21:02 | 40.24594 | 3.40363 | 20536 ft | 395 kts | 184° |
| 2026-05-05 21:02 | 40.21866 | 3.40524 | 19869 ft | 391 kts | 184° |
| 2026-05-05 21:02 | 40.19206 | 3.40679 | 19355 ft | 384 kts | 184° |
| 2026-05-05 21:02 | 40.16592 | 3.40834 | 19232 ft | 368 kts | 184° |
| 2026-05-05 21:03 | 40.14124 | 3.40986 | 19100 ft | 342 kts | 184° |
| 2026-05-05 21:03 | 40.11839 | 3.41131 | 18926 ft | 317 kts | 185° |
| 2026-05-05 21:03 | 40.09677 | 3.41258 | 18537 ft | 305 kts | 185° |
| 2026-05-05 21:03 | 40.07569 | 3.41368 | 18311 ft | 302 kts | 186° |
| 2026-05-05 21:04 | 40.05475 | 3.41473 | 17946 ft | 298 kts | 186° |
| 2026-05-05 21:04 | 40.03415 | 3.41579 | 17216 ft | 295 kts | 185° |
| 2026-05-05 21:04 | 40.01373 | 3.41683 | 16505 ft | 292 kts | 185° |
| 2026-05-05 21:04 | 39.99353 | 3.41787 | 15826 ft | 289 kts | 185° |
| 2026-05-05 21:05 | 39.97349 | 3.41895 | 15140 ft | 287 kts | 185° |
| 2026-05-05 21:05 | 39.95359 | 3.42005 | 14497 ft | 285 kts | 184° |
| 2026-05-05 21:05 | 39.93384 | 3.42118 | 13857 ft | 283 kts | 184° |
| 2026-05-05 21:05 | 39.91427 | 3.42228 | 13194 ft | 281 kts | 184° |
| 2026-05-05 21:06 | 39.89481 | 3.42337 | 12491 ft | 279 kts | 184° |
| 2026-05-05 21:06 | 39.87549 | 3.42446 | 11780 ft | 278 kts | 183° |
| 2026-05-05 21:06 | 39.85609 | 3.42556 | 11077 ft | 278 kts | 182° |
| 2026-05-05 21:06 | 39.83681 | 3.42663 | 10389 ft | 278 kts | 182° |
| 2026-05-05 21:07 | 39.81746 | 3.42768 | 10070 ft | 280 kts | 182° |
| 2026-05-05 21:07 | 39.79792 | 3.42876 | 9891 ft | 282 kts | 182° |
| 2026-05-05 21:07 | 39.77831 | 3.42988 | 9766 ft | 283 kts | 181° |
| 2026-05-05 21:07 | 39.75869 | 3.43098 | 9633 ft | 283 kts | 181° |
| 2026-05-05 21:08 | 39.73928 | 3.43133 | 9480 ft | 280 kts | 191° |
| 2026-05-05 21:08 | 39.72119 | 3.42358 | 9349 ft | 273 kts | 214° |
| 2026-05-05 21:08 | 39.70753 | 3.40707 | 9214 ft | 268 kts | 238° |
| 2026-05-05 21:08 | 39.70049 | 3.38554 | 9082 ft | 255 kts | 259° |
| 2026-05-05 21:09 | 39.69996 | 3.36308 | 8959 ft | 246 kts | 272° |
| 2026-05-05 21:09 | 39.70074 | 3.34109 | 8829 ft | 239 kts | 271° |
| 2026-05-05 21:09 | 39.70145 | 3.31986 | 8706 ft | 235 kts | 271° |
| 2026-05-05 21:09 | 39.70213 | 3.29870 | 8473 ft | 233 kts | 271° |
| 2026-05-05 21:10 | 39.70277 | 3.27773 | 8220 ft | 232 kts | 271° |
| 2026-05-05 21:10 | 39.70342 | 3.25678 | 7954 ft | 232 kts | 272° |
| 2026-05-05 21:10 | 39.70410 | 3.23590 | 7652 ft | 231 kts | 272° |
| 2026-05-05 21:10 | 39.70477 | 3.21504 | 7358 ft | 231 kts | 272° |
| 2026-05-05 21:11 | 39.70542 | 3.19425 | 7063 ft | 230 kts | 272° |
| 2026-05-05 21:11 | 39.70606 | 3.17362 | 6772 ft | 229 kts | 272° |
| 2026-05-05 21:11 | 39.70667 | 3.15324 | 6485 ft | 229 kts | 272° |
| 2026-05-05 21:11 | 39.70727 | 3.13258 | 6188 ft | 229 kts | 272° |
| 2026-05-05 21:12 | 39.70788 | 3.11198 | 5886 ft | 228 kts | 272° |
| 2026-05-05 21:12 | 39.70740 | 3.09162 | 5662 ft | 226 kts | 259° |
| 2026-05-05 21:12 | 39.70158 | 3.07262 | 5415 ft | 229 kts | 241° |
| 2026-05-05 21:12 | 39.69330 | 3.05498 | 5131 ft | 228 kts | 241° |
| 2026-05-05 21:13 | 39.68508 | 3.03750 | 4848 ft | 226 kts | 240° |
| 2026-05-05 21:13 | 39.67695 | 3.02015 | 4541 ft | 224 kts | 240° |
| 2026-05-05 21:13 | 39.66884 | 3.00283 | 4239 ft | 224 kts | 240° |
| 2026-05-05 21:13 | 39.66080 | 2.98569 | 3941 ft | 221 kts | 240° |
| 2026-05-05 21:14 | 39.65285 | 2.96873 | 3645 ft | 219 kts | 240° |
| 2026-05-05 21:14 | 39.64496 | 2.95193 | 3359 ft | 217 kts | 241° |
| 2026-05-05 21:14 | 39.63716 | 2.93531 | 3071 ft | 213 kts | 240° |
| 2026-05-05 21:14 | 39.62968 | 2.91940 | 2791 ft | 200 kts | 241° |
| 2026-05-05 21:15 | 39.62266 | 2.90449 | 2567 ft | 186 kts | 241° |
| 2026-05-05 21:15 | 39.61619 | 2.89073 | 2313 ft | 171 kts | 240° |
| 2026-05-05 21:15 | 39.61038 | 2.87839 | 2099 ft | 151 kts | 241° |
| 2026-05-05 21:15 | 39.60518 | 2.86734 | 1889 ft | 137 kts | 241° |
| 2026-05-05 21:16 | 39.60033 | 2.85700 | 1701 ft | 132 kts | 240° |
| 2026-05-05 21:16 | 39.59558 | 2.84691 | 1525 ft | 131 kts | 240° |
| 2026-05-05 21:16 | 39.59083 | 2.83690 | 1359 ft | 131 kts | 240° |
| 2026-05-05 21:16 | 39.58609 | 2.82681 | 1175 ft | 132 kts | 239° |
| 2026-05-05 21:17 | 39.58134 | 2.81687 | 1017 ft | 131 kts | 239° |
| 2026-05-05 21:17 | 39.57660 | 2.80672 | 846 ft | 132 kts | 239° |
| 2026-05-05 21:17 | 39.57183 | 2.79658 | 679 ft | 131 kts | 239° |
| 2026-05-05 21:17 | 39.56710 | 2.78656 | 493 ft | 129 kts | 238° |
| 2026-05-05 21:18 | 39.56238 | 2.77653 | 324 ft | 128 kts | 239° |
| 2026-05-05 21:18 | 39.55773 | 2.76658 | 159 ft | 133 kts | 238° |
| 2026-05-05 21:18 | 39.55283 | 2.75621 | 50 ft | 126 kts | 238° |
| 2026-05-05 21:18 | 39.54886 | 2.74776 | 37 ft | 89 kts | 238° |
| 2026-05-05 21:19 | 39.54658 | 2.74292 | 38 ft | 41 kts | 238° |
| 2026-05-05 21:19 | 39.54575 | 2.74098 | 36 ft | 22 kts | 253° |
| 2026-05-05 21:19 | 39.54552 | 2.73915 | 38 ft | 18 kts | 268° |
| 2026-05-05 21:19 | 39.54551 | 2.73799 | 38 ft | 8 kts | 268° |
| 2026-05-05 21:20 | 39.54565 | 2.73746 | 37 ft | 7 kts | 323° |
| 2026-05-05 21:20 | 39.54587 | 2.73740 | 38 ft | 6 kts | 0° |
| 2026-05-05 21:20 | 39.54637 | 2.73808 | 38 ft | 16 kts | 61° |
| 2026-05-05 21:20 | 39.54699 | 2.73940 | 38 ft | 14 kts | 59° |
| 2026-05-05 21:21 | 39.54771 | 2.73944 | 38 ft | 10 kts | 354° |
| 2026-05-05 21:21 | 39.54805 | 2.73977 | 38 ft | 9 kts | 52° |
| 2026-05-05 21:21 | 39.54869 | 2.73983 | 38 ft | 8 kts | 331° |
| 2026-05-05 21:21 | 39.54917 | 2.73945 | 38 ft | 17 kts | 327° |
| 2026-05-05 21:22 | 39.55038 | 2.73852 | 38 ft | 21 kts | 329° |
| 2026-05-05 21:22 | 39.55150 | 2.73764 | 38 ft | 15 kts | 329° |
| 2026-05-05 21:22 | 39.55173 | 2.73682 | 38 ft | 8 kts | 250° |
| 2026-05-05 21:22 | 39.55143 | 2.73619 | 38 ft | 9 kts | 237° |
| 2026-05-05 21:23 | 39.55110 | 2.73549 | 38 ft | 9 kts | 239° |
| 2026-05-05 21:23 | 39.55075 | 2.73473 | 38 ft | 10 kts | 238° |
| 2026-05-05 21:23 | 39.55032 | 2.73427 | 38 ft | 5 kts | 169° |
| 2026-05-05 21:23 | 39.55008 | 2.73438 | 38 ft | 2 kts | 165° |
| 2026-05-05 21:24 | 39.54998 | 2.73441 | 38 ft | 0 kts | 164° |